sensor_id;sensor_type;location;lat;lon;timestamp;pressure;altitude;pressure_sealevel;temperature;humidity
3254;BME280;1639;42.804;23.342;2023-01-30T00:00:58;74724.44;;;-148.52;100.00
3254;BME280;1639;42.804;23.342;2023-01-30T00:03:24;74728.56;;;-148.52;100.00
3254;BME280;1639;42.804;23.342;2023-01-30T00:05:50;74732.72;;;-148.52;100.00
3254;BME280;1639;42.804;23.342;2023-01-30T00:08:16;74726.50;;;-148.52;100.00
3254;BME280;1639;42.804;23.342;2023-01-30T00:10:42;74732.72;;;-148.52;100.00
3254;BME280;1639;42.804;23.342;2023-01-30T00:13:08;74743.06;;;-148.52;100.00
3254;BME280;1639;42.804;23.342;2023-01-30T00:15:33;74736.84;;;-148.52;100.00
3254;BME280;1639;42.804;23.342;2023-01-30T00:17:59;74740.97;;;-148.52;100.00
3254;BME280;1639;42.804;23.342;2023-01-30T00:20:24;74738.91;;;-148.52;100.00
3254;BME280;1639;42.804;23.342;2023-01-30T00:22:49;74738.91;;;-148.52;100.00
3254;BME280;1639;42.804;23.342;2023-01-30T00:25:15;74728.56;;;-148.52;100.00
3254;BME280;1639;42.804;23.342;2023-01-30T00:27:40;74728.56;;;-148.52;100.00
3254;BME280;1639;42.804;23.342;2023-01-30T00:30:06;74714.09;;;-148.52;100.00
3254;BME280;1639;42.804;23.342;2023-01-30T00:32:32;74718.22;;;-148.52;100.00
3254;BME280;1639;42.804;23.342;2023-01-30T00:34:58;74718.22;;;-148.52;100.00
3254;BME280;1639;42.804;23.342;2023-01-30T00:37:23;74712.03;;;-148.52;100.00
3254;BME280;1639;42.804;23.342;2023-01-30T00:39:48;74709.94;;;-148.52;100.00
3254;BME280;1639;42.804;23.342;2023-01-30T00:42:14;74714.09;;;-148.52;100.00
3254;BME280;1639;42.804;23.342;2023-01-30T00:44:58;74712.03;;;-148.52;100.00
3254;BME280;1639;42.804;23.342;2023-01-30T00:47:42;74716.16;;;-148.52;100.00
3254;BME280;1639;42.804;23.342;2023-01-30T00:50:08;74720.28;;;-148.52;100.00
3254;BME280;1639;42.804;23.342;2023-01-30T00:52:33;74722.38;;;-148.52;100.00
3254;BME280;1639;42.804;23.342;2023-01-30T00:54:59;74734.78;;;-148.52;100.00
3254;BME280;1639;42.804;23.342;2023-01-30T00:57:24;74734.78;;;-148.52;100.00
3254;BME280;1639;42.804;23.342;2023-01-30T00:59:50;74747.19;;;-148.52;100.00
3254;BME280;1639;42.804;23.342;2023-01-30T01:02:15;74743.06;;;-148.52;100.00
3254;BME280;1639;42.804;23.342;2023-01-30T01:04:40;74740.97;;;-148.52;100.00
3254;BME280;1639;42.804;23.342;2023-01-30T01:07:10;74743.06;;;-148.52;100.00
3254;BME280;1639;42.804;23.342;2023-01-30T01:09:35;74747.19;;;-148.52;100.00
3254;BME280;1639;42.804;23.342;2023-01-30T01:12:01;74745.13;;;-148.52;100.00
3254;BME280;1639;42.804;23.342;2023-01-30T01:14:26;74743.06;;;-148.52;100.00
3254;BME280;1639;42.804;23.342;2023-01-30T01:16:51;74730.63;;;-148.52;100.00
3254;BME280;1639;42.804;23.342;2023-01-30T01:19:17;74730.63;;;-148.52;100.00
3254;BME280;1639;42.804;23.342;2023-01-30T01:21:42;74728.56;;;-148.52;100.00
3254;BME280;1639;42.804;23.342;2023-01-30T01:24:11;74726.50;;;-148.52;100.00
3254;BME280;1639;42.804;23.342;2023-01-30T01:26:37;74728.56;;;-148.52;100.00
3254;BME280;1639;42.804;23.342;2023-01-30T01:29:03;74726.50;;;-148.52;100.00
3254;BME280;1639;42.804;23.342;2023-01-30T01:31:28;74726.50;;;-148.52;100.00
3254;BME280;1639;42.804;23.342;2023-01-30T01:33:53;74730.63;;;-148.52;100.00
3254;BME280;1639;42.804;23.342;2023-01-30T01:36:19;74722.38;;;-148.52;100.00
3254;BME280;1639;42.804;23.342;2023-01-30T01:38:44;74726.50;;;-148.52;100.00
3254;BME280;1639;42.804;23.342;2023-01-30T01:41:11;74730.63;;;-148.52;100.00
3254;BME280;1639;42.804;23.342;2023-01-30T01:44:01;74728.56;;;-148.52;100.00
3254;BME280;1639;42.804;23.342;2023-01-30T01:46:49;74732.72;;;-148.52;100.00
3254;BME280;1639;42.804;23.342;2023-01-30T01:49:21;74728.56;;;-148.52;100.00
3254;BME280;1639;42.804;23.342;2023-01-30T01:54:43;74728.56;;;-148.52;100.00
3254;BME280;1639;42.804;23.342;2023-01-30T01:57:22;74726.50;;;-148.52;100.00
3254;BME280;1639;42.804;23.342;2023-01-30T01:59:52;74722.38;;;-148.52;100.00
3254;BME280;1639;42.804;23.342;2023-01-30T02:02:19;74714.09;;;-148.52;100.00
3254;BME280;1639;42.804;23.342;2023-01-30T02:04:48;74712.03;;;-148.52;100.00
3254;BME280;1639;42.804;23.342;2023-01-30T02:07:28;74722.38;;;-148.52;100.00
3254;BME280;1639;42.804;23.342;2023-01-30T02:09:56;74720.28;;;-148.52;100.00
3254;BME280;1639;42.804;23.342;2023-01-30T02:12:21;74722.38;;;-148.52;100.00
3254;BME280;1639;42.804;23.342;2023-01-30T02:14:47;74718.22;;;-148.52;100.00
3254;BME280;1639;42.804;23.342;2023-01-30T02:17:14;74712.03;;;-148.52;100.00
3254;BME280;1639;42.804;23.342;2023-01-30T02:33:59;74732.72;;;-148.52;100.00
3254;BME280;1639;42.804;23.342;2023-01-30T02:45:08;74726.50;;;-148.52;100.00
3254;BME280;1639;42.804;23.342;2023-01-30T02:50:40;74705.81;;;-148.52;100.00
3254;BME280;1639;42.804;23.342;2023-01-30T02:53:09;74716.16;;;-148.52;100.00
3254;BME280;1639;42.804;23.342;2023-01-30T02:55:34;74714.09;;;-148.52;100.00
3254;BME280;1639;42.804;23.342;2023-01-30T02:58:02;74716.16;;;-148.52;100.00
3254;BME280;1639;42.804;23.342;2023-01-30T03:03:17;74730.63;;;-148.52;100.00
3254;BME280;1639;42.804;23.342;2023-01-30T03:11:03;74707.88;;;-148.52;100.00
3254;BME280;1639;42.804;23.342;2023-01-30T03:18:50;74689.25;;;-148.52;100.00
3254;BME280;1639;42.804;23.342;2023-01-30T03:21:16;74693.41;;;-148.52;100.00
3254;BME280;1639;42.804;23.342;2023-01-30T03:23:44;74680.97;;;-148.52;100.00
3254;BME280;1639;42.804;23.342;2023-01-30T03:26:13;74676.84;;;-148.52;100.00
3254;BME280;1639;42.804;23.342;2023-01-30T03:28:40;74685.13;;;-148.52;100.00
3254;BME280;1639;42.804;23.342;2023-01-30T03:31:06;74689.25;;;-148.52;100.00
3254;BME280;1639;42.804;23.342;2023-01-30T03:33:31;74697.53;;;-148.52;100.00
3254;BME280;1639;42.804;23.342;2023-01-30T03:35:56;74695.47;;;-148.52;100.00
3254;BME280;1639;42.804;23.342;2023-01-30T03:38:22;74697.53;;;-148.52;100.00
3254;BME280;1639;42.804;23.342;2023-01-30T03:40:47;74678.91;;;-148.52;100.00
3254;BME280;1639;42.804;23.342;2023-01-30T03:43:13;74685.13;;;-148.52;100.00
3254;BME280;1639;42.804;23.342;2023-01-30T03:45:38;74676.84;;;-148.52;100.00
3254;BME280;1639;42.804;23.342;2023-01-30T03:48:03;74674.78;;;-148.52;100.00
3254;BME280;1639;42.804;23.342;2023-01-30T03:50:29;74672.69;;;-148.52;100.00
3254;BME280;1639;42.804;23.342;2023-01-30T03:52:54;74674.78;;;-148.52;100.00
3254;BME280;1639;42.804;23.342;2023-01-30T03:55:20;74670.63;;;-148.52;100.00
3254;BME280;1639;42.804;23.342;2023-01-30T03:57:45;74676.84;;;-148.52;100.00
3254;BME280;1639;42.804;23.342;2023-01-30T04:00:11;74668.56;;;-148.52;100.00
3254;BME280;1639;42.804;23.342;2023-01-30T04:02:36;74670.63;;;-148.52;100.00
3254;BME280;1639;42.804;23.342;2023-01-30T04:05:03;74674.78;;;-148.52;100.00
3254;BME280;1639;42.804;23.342;2023-01-30T04:07:29;74683.06;;;-148.52;100.00
3254;BME280;1639;42.804;23.342;2023-01-30T04:09:54;74691.31;;;-148.52;100.00
3254;BME280;1639;42.804;23.342;2023-01-30T04:12:19;74680.97;;;-148.52;100.00
3254;BME280;1639;42.804;23.342;2023-01-30T04:14:45;74676.84;;;-148.52;100.00
3254;BME280;1639;42.804;23.342;2023-01-30T04:17:10;74674.78;;;-148.52;100.00
3254;BME280;1639;42.804;23.342;2023-01-30T04:19:35;74672.69;;;-148.52;100.00
3254;BME280;1639;42.804;23.342;2023-01-30T04:22:01;74680.97;;;-148.52;100.00
3254;BME280;1639;42.804;23.342;2023-01-30T04:24:26;74676.84;;;-148.52;100.00
3254;BME280;1639;42.804;23.342;2023-01-30T04:26:52;74672.69;;;-148.52;100.00
3254;BME280;1639;42.804;23.342;2023-01-30T04:29:17;74672.69;;;-148.52;100.00
3254;BME280;1639;42.804;23.342;2023-01-30T04:31:42;74664.44;;;-148.52;100.00
3254;BME280;1639;42.804;23.342;2023-01-30T04:34:08;74662.38;;;-148.52;100.00
3254;BME280;1639;42.804;23.342;2023-01-30T04:36:33;74649.94;;;-148.52;100.00
3254;BME280;1639;42.804;23.342;2023-01-30T04:38:59;74643.75;;;-148.52;100.00
3254;BME280;1639;42.804;23.342;2023-01-30T04:41:24;74637.53;;;-148.52;100.00
3254;BME280;1639;42.804;23.342;2023-01-30T04:43:49;74639.59;;;-148.52;100.00
3254;BME280;1639;42.804;23.342;2023-01-30T04:46:15;74637.53;;;-148.52;100.00
3254;BME280;1639;42.804;23.342;2023-01-30T04:48:40;74652.00;;;-148.52;100.00
3254;BME280;1639;42.804;23.342;2023-01-30T04:51:06;74647.88;;;-148.52;100.00
3254;BME280;1639;42.804;23.342;2023-01-30T04:53:31;74656.16;;;-148.52;100.00
3254;BME280;1639;42.804;23.342;2023-01-30T04:55:57;74656.16;;;-148.52;100.00
3254;BME280;1639;42.804;23.342;2023-01-30T04:58:22;74643.75;;;-148.52;100.00
3254;BME280;1639;42.804;23.342;2023-01-30T05:00:47;74639.59;;;-148.52;100.00
3254;BME280;1639;42.804;23.342;2023-01-30T05:03:13;74639.59;;;-148.52;100.00
3254;BME280;1639;42.804;23.342;2023-01-30T05:05:39;74631.31;;;-148.52;100.00
3254;BME280;1639;42.804;23.342;2023-01-30T05:08:04;74643.75;;;-148.52;100.00
3254;BME280;1639;42.804;23.342;2023-01-30T05:10:30;74647.88;;;-148.52;100.00
3254;BME280;1639;42.804;23.342;2023-01-30T05:12:55;74635.47;;;-148.52;100.00
3254;BME280;1639;42.804;23.342;2023-01-30T05:15:20;74643.75;;;-148.52;100.00
3254;BME280;1639;42.804;23.342;2023-01-30T05:17:46;74639.59;;;-148.52;100.00
3254;BME280;1639;42.804;23.342;2023-01-30T05:20:12;74633.41;;;-148.52;100.00
3254;BME280;1639;42.804;23.342;2023-01-30T05:22:37;74631.31;;;-148.52;100.00
3254;BME280;1639;42.804;23.342;2023-01-30T05:25:03;74635.47;;;-148.52;100.00
3254;BME280;1639;42.804;23.342;2023-01-30T05:27:29;74635.47;;;-148.52;100.00
3254;BME280;1639;42.804;23.342;2023-01-30T05:29:54;74641.66;;;-148.52;100.00
3254;BME280;1639;42.804;23.342;2023-01-30T05:32:19;74637.53;;;-148.52;100.00
3254;BME280;1639;42.804;23.342;2023-01-30T05:34:46;74643.75;;;-148.52;100.00
3254;BME280;1639;42.804;23.342;2023-01-30T05:37:12;74645.81;;;-148.52;100.00
3254;BME280;1639;42.804;23.342;2023-01-30T05:39:37;74647.88;;;-148.52;100.00
3254;BME280;1639;42.804;23.342;2023-01-30T05:42:03;74647.88;;;-148.52;100.00
3254;BME280;1639;42.804;23.342;2023-01-30T05:44:29;74658.22;;;-148.52;100.00
3254;BME280;1639;42.804;23.342;2023-01-30T05:46:54;74652.00;;;-148.52;100.00
3254;BME280;1639;42.804;23.342;2023-01-30T05:49:20;74654.09;;;-148.52;100.00
3254;BME280;1639;42.804;23.342;2023-01-30T05:51:45;74652.00;;;-148.52;100.00
3254;BME280;1639;42.804;23.342;2023-01-30T05:54:11;74654.09;;;-148.52;100.00
3254;BME280;1639;42.804;23.342;2023-01-30T05:56:36;74652.00;;;-148.52;100.00
3254;BME280;1639;42.804;23.342;2023-01-30T05:59:02;74660.28;;;-148.52;100.00
3254;BME280;1639;42.804;23.342;2023-01-30T06:01:28;74662.38;;;-148.52;100.00
3254;BME280;1639;42.804;23.342;2023-01-30T06:03:54;74666.50;;;-148.52;100.00
3254;BME280;1639;42.804;23.342;2023-01-30T06:06:20;74664.44;;;-148.52;100.00
3254;BME280;1639;42.804;23.342;2023-01-30T06:08:46;74668.56;;;-148.52;100.00
3254;BME280;1639;42.804;23.342;2023-01-30T06:11:14;74676.84;;;-148.52;100.00
3254;BME280;1639;42.804;23.342;2023-01-30T06:13:39;74674.78;;;-148.52;100.00
3254;BME280;1639;42.804;23.342;2023-01-30T06:16:06;74680.97;;;-148.52;100.00
3254;BME280;1639;42.804;23.342;2023-01-30T06:18:32;74699.59;;;-148.52;100.00
3254;BME280;1639;42.804;23.342;2023-01-30T06:20:58;74699.59;;;-148.52;100.00
3254;BME280;1639;42.804;23.342;2023-01-30T06:23:23;74693.41;;;-148.52;100.00
3254;BME280;1639;42.804;23.342;2023-01-30T06:25:49;74693.41;;;-148.52;100.00
3254;BME280;1639;42.804;23.342;2023-01-30T06:28:16;74689.25;;;-148.52;100.00
3254;BME280;1639;42.804;23.342;2023-01-30T06:30:42;74687.19;;;-148.52;100.00
3254;BME280;1639;42.804;23.342;2023-01-30T06:33:07;74678.91;;;-148.52;100.00
3254;BME280;1639;42.804;23.342;2023-01-30T06:35:33;74683.06;;;-148.52;100.00
3254;BME280;1639;42.804;23.342;2023-01-30T06:37:59;74678.91;;;-148.52;100.00
3254;BME280;1639;42.804;23.342;2023-01-30T06:40:24;74672.69;;;-148.52;100.00
3254;BME280;1639;42.804;23.342;2023-01-30T06:42:50;74683.06;;;-148.52;100.00
3254;BME280;1639;42.804;23.342;2023-01-30T06:45:17;74691.31;;;-148.52;100.00
3254;BME280;1639;42.804;23.342;2023-01-30T06:47:47;74683.06;;;-148.52;100.00
3254;BME280;1639;42.804;23.342;2023-01-30T06:50:14;74674.78;;;-148.52;100.00
3254;BME280;1639;42.804;23.342;2023-01-30T06:52:44;74672.69;;;-148.52;100.00
3254;BME280;1639;42.804;23.342;2023-01-30T06:55:11;74670.63;;;-148.52;100.00
3254;BME280;1639;42.804;23.342;2023-01-30T06:57:36;74670.63;;;-148.52;100.00
3254;BME280;1639;42.804;23.342;2023-01-30T07:00:07;74683.06;;;-148.52;100.00
3254;BME280;1639;42.804;23.342;2023-01-30T07:02:33;74683.06;;;-148.52;100.00
3254;BME280;1639;42.804;23.342;2023-01-30T07:05:04;74678.91;;;-148.52;100.00
3254;BME280;1639;42.804;23.342;2023-01-30T07:07:30;74685.13;;;-148.52;100.00
3254;BME280;1639;42.804;23.342;2023-01-30T07:09:56;74687.19;;;-148.52;100.00
3254;BME280;1639;42.804;23.342;2023-01-30T07:12:22;74680.97;;;-148.52;100.00
3254;BME280;1639;42.804;23.342;2023-01-30T07:14:49;74683.06;;;-148.52;100.00
3254;BME280;1639;42.804;23.342;2023-01-30T07:17:14;74687.19;;;-148.52;100.00
3254;BME280;1639;42.804;23.342;2023-01-30T07:19:41;74678.91;;;-148.52;100.00
3254;BME280;1639;42.804;23.342;2023-01-30T07:22:06;74668.56;;;-148.52;100.00
3254;BME280;1639;42.804;23.342;2023-01-30T07:24:31;74664.44;;;-148.52;100.00
3254;BME280;1639;42.804;23.342;2023-01-30T07:26:57;74672.69;;;-148.52;100.00
3254;BME280;1639;42.804;23.342;2023-01-30T07:29:22;74668.56;;;-148.52;100.00
3254;BME280;1639;42.804;23.342;2023-01-30T07:31:48;74660.28;;;-148.52;100.00
3254;BME280;1639;42.804;23.342;2023-01-30T07:34:13;74641.66;;;-148.52;100.00
3254;BME280;1639;42.804;23.342;2023-01-30T07:36:38;74641.66;;;-148.52;100.00
3254;BME280;1639;42.804;23.342;2023-01-30T07:39:04;74643.75;;;-148.52;100.00
3254;BME280;1639;42.804;23.342;2023-01-30T07:41:30;74639.59;;;-148.52;100.00
3254;BME280;1639;42.804;23.342;2023-01-30T07:43:55;74635.47;;;-148.52;100.00
3254;BME280;1639;42.804;23.342;2023-01-30T07:46:21;74639.59;;;-148.52;100.00
3254;BME280;1639;42.804;23.342;2023-01-30T07:48:46;74637.53;;;-148.52;100.00
3254;BME280;1639;42.804;23.342;2023-01-30T07:51:11;74627.19;;;-148.52;100.00
3254;BME280;1639;42.804;23.342;2023-01-30T07:53:37;74631.31;;;-148.52;100.00
3254;BME280;1639;42.804;23.342;2023-01-30T07:56:09;74627.19;;;-148.52;100.00
3254;BME280;1639;42.804;23.342;2023-01-30T07:58:35;74625.13;;;-148.52;100.00
3254;BME280;1639;42.804;23.342;2023-01-30T08:01:01;74616.84;;;-148.52;100.00
3254;BME280;1639;42.804;23.342;2023-01-30T08:03:26;74618.91;;;-148.52;100.00
3254;BME280;1639;42.804;23.342;2023-01-30T08:05:52;74616.84;;;-148.52;100.00
3254;BME280;1639;42.804;23.342;2023-01-30T08:08:19;74610.63;;;-148.52;100.00
3254;BME280;1639;42.804;23.342;2023-01-30T08:10:47;74612.69;;;-148.52;100.00
3254;BME280;1639;42.804;23.342;2023-01-30T08:13:13;74594.09;;;-148.52;100.00
3254;BME280;1639;42.804;23.342;2023-01-30T08:15:39;74575.47;;;-148.52;100.00
3254;BME280;1639;42.804;23.342;2023-01-30T08:18:04;74577.53;;;-148.52;100.00
3254;BME280;1639;42.804;23.342;2023-01-30T08:20:31;74587.88;;;-148.52;100.00
3254;BME280;1639;42.804;23.342;2023-01-30T08:22:57;74592.00;;;-148.52;100.00
3254;BME280;1639;42.804;23.342;2023-01-30T08:25:23;74594.09;;;-148.52;100.00
3254;BME280;1639;42.804;23.342;2023-01-30T08:27:49;74594.09;;;-148.52;100.00
3254;BME280;1639;42.804;23.342;2023-01-30T08:30:15;74594.09;;;-148.52;100.00
3254;BME280;1639;42.804;23.342;2023-01-30T08:32:40;74579.59;;;-148.52;100.00
3254;BME280;1639;42.804;23.342;2023-01-30T08:35:06;74575.47;;;-148.52;100.00
3254;BME280;1639;42.804;23.342;2023-01-30T08:37:32;74563.03;;;-148.52;100.00
3254;BME280;1639;42.804;23.342;2023-01-30T08:39:57;74567.19;;;-148.52;100.00
3254;BME280;1639;42.804;23.342;2023-01-30T08:42:22;74565.13;;;-148.52;100.00
3254;BME280;1639;42.804;23.342;2023-01-30T08:44:48;74554.78;;;-148.52;100.00
3254;BME280;1639;42.804;23.342;2023-01-30T08:47:14;74544.44;;;-148.52;100.00
3254;BME280;1639;42.804;23.342;2023-01-30T08:49:39;74558.91;;;-148.52;100.00
3254;BME280;1639;42.804;23.342;2023-01-30T08:52:04;74560.97;;;-148.52;100.00
3254;BME280;1639;42.804;23.342;2023-01-30T08:54:30;74548.56;;;-148.52;100.00
3254;BME280;1639;42.804;23.342;2023-01-30T08:56:55;74540.28;;;-148.52;100.00
3254;BME280;1639;42.804;23.342;2023-01-30T08:59:20;74554.78;;;-148.52;100.00
3254;BME280;1639;42.804;23.342;2023-01-30T09:01:46;74554.78;;;-148.52;100.00
3254;BME280;1639;42.804;23.342;2023-01-30T09:04:11;74563.03;;;-148.52;100.00
3254;BME280;1639;42.804;23.342;2023-01-30T09:06:37;74567.19;;;-148.52;100.00
3254;BME280;1639;42.804;23.342;2023-01-30T09:09:02;74583.75;;;-148.52;100.00
3254;BME280;1639;42.804;23.342;2023-01-30T09:11:27;74581.66;;;-148.52;100.00
3254;BME280;1639;42.804;23.342;2023-01-30T09:13:53;74579.59;;;-148.52;100.00
3254;BME280;1639;42.804;23.342;2023-01-30T09:16:18;74581.66;;;-148.52;100.00
3254;BME280;1639;42.804;23.342;2023-01-30T09:18:44;74569.25;;;-148.52;100.00
3254;BME280;1639;42.804;23.342;2023-01-30T09:21:10;74577.53;;;-148.52;100.00
3254;BME280;1639;42.804;23.342;2023-01-30T09:23:36;74585.81;;;-148.52;100.00
3254;BME280;1639;42.804;23.342;2023-01-30T09:26:03;74600.28;;;-148.52;100.00
3254;BME280;1639;42.804;23.342;2023-01-30T09:28:28;74602.34;;;-148.52;100.00
3254;BME280;1639;42.804;23.342;2023-01-30T09:31:01;74592.00;;;-148.52;100.00
3254;BME280;1639;42.804;23.342;2023-01-30T09:33:26;74594.09;;;-148.52;100.00
3254;BME280;1639;42.804;23.342;2023-01-30T09:35:52;74581.66;;;-148.52;100.00
3254;BME280;1639;42.804;23.342;2023-01-30T09:38:18;74585.81;;;-148.52;100.00
3254;BME280;1639;42.804;23.342;2023-01-30T09:41:00;74587.88;;;-148.52;100.00
3254;BME280;1639;42.804;23.342;2023-01-30T09:46:03;74581.66;;;-148.52;100.00
3254;BME280;1639;42.804;23.342;2023-01-30T09:51:09;74579.59;;;-148.52;100.00
3254;BME280;1639;42.804;23.342;2023-01-30T09:56:07;74567.19;;;-148.52;100.00
3254;BME280;1639;42.804;23.342;2023-01-30T09:58:41;74560.97;;;-148.52;100.00
3254;BME280;1639;42.804;23.342;2023-01-30T10:01:16;74552.69;;;-148.52;100.00
3254;BME280;1639;42.804;23.342;2023-01-30T10:06:24;74515.47;;;-148.52;100.00
3254;BME280;1639;42.804;23.342;2023-01-30T10:22:01;74482.34;;;-148.52;100.00
3254;BME280;1639;42.804;23.342;2023-01-30T10:26:57;74478.22;;;-148.52;100.00
3254;BME280;1639;42.804;23.342;2023-01-30T10:29:30;74490.63;;;-148.52;100.00
3254;BME280;1639;42.804;23.342;2023-01-30T10:32:01;74490.63;;;-148.52;100.00
3254;BME280;1639;42.804;23.342;2023-01-30T10:34:36;74474.06;;;-148.52;100.00
3254;BME280;1639;42.804;23.342;2023-01-30T10:37:17;74476.16;;;-148.52;100.00
3254;BME280;1639;42.804;23.342;2023-01-30T10:40:13;74482.34;;;-148.52;100.00
3254;BME280;1639;42.804;23.342;2023-01-30T10:42:43;74482.34;;;-148.52;100.00
3254;BME280;1639;42.804;23.342;2023-01-30T10:45:16;74478.22;;;-148.52;100.00
3254;BME280;1639;42.804;23.342;2023-01-30T10:50:18;74463.72;;;-148.52;100.00
3254;BME280;1639;42.804;23.342;2023-01-30T10:52:58;74461.66;;;-148.52;100.00
3254;BME280;1639;42.804;23.342;2023-01-30T10:55:34;74453.38;;;-148.52;100.00
3254;BME280;1639;42.804;23.342;2023-01-30T11:03:23;74436.84;;;-148.52;100.00
3254;BME280;1639;42.804;23.342;2023-01-30T11:05:52;74424.41;;;-148.52;100.00
3254;BME280;1639;42.804;23.342;2023-01-30T11:08:22;74412.00;;;-148.52;100.00
3254;BME280;1639;42.804;23.342;2023-01-30T11:10:48;74397.53;;;-148.52;100.00
3254;BME280;1639;42.804;23.342;2023-01-30T11:13:20;74395.47;;;-148.52;100.00
3254;BME280;1639;42.804;23.342;2023-01-30T11:15:48;74378.91;;;-148.52;100.00
3254;BME280;1639;42.804;23.342;2023-01-30T11:18:16;74370.63;;;-148.52;100.00
3254;BME280;1639;42.804;23.342;2023-01-30T11:20:44;74358.22;;;-148.52;100.00
3254;BME280;1639;42.804;23.342;2023-01-30T11:23:25;74343.72;;;-148.52;100.00
3254;BME280;1639;42.804;23.342;2023-01-30T11:25:55;74362.34;;;-148.52;100.00
3254;BME280;1639;42.804;23.342;2023-01-30T11:28:23;74362.34;;;-148.52;100.00
3254;BME280;1639;42.804;23.342;2023-01-30T11:30:59;74362.34;;;-148.52;100.00
3254;BME280;1639;42.804;23.342;2023-01-30T11:33:36;74358.22;;;-148.52;100.00
3254;BME280;1639;42.804;23.342;2023-01-30T11:36:06;74345.81;;;-148.52;100.00
3254;BME280;1639;42.804;23.342;2023-01-30T11:41:21;74343.72;;;-148.52;100.00
3254;BME280;1639;42.804;23.342;2023-01-30T11:43:47;74345.81;;;-148.52;100.00
3254;BME280;1639;42.804;23.342;2023-01-30T11:46:18;74341.66;;;-148.52;100.00
3254;BME280;1639;42.804;23.342;2023-01-30T11:48:54;74331.31;;;-148.52;100.00
3254;BME280;1639;42.804;23.342;2023-01-30T11:51:24;74325.13;;;-148.52;100.00
3254;BME280;1639;42.804;23.342;2023-01-30T11:53:55;74323.03;;;-148.52;100.00
3254;BME280;1639;42.804;23.342;2023-01-30T11:59:03;74312.69;;;-148.52;100.00
3254;BME280;1639;42.804;23.342;2023-01-30T12:01:31;74306.50;;;-148.52;100.00
3254;BME280;1639;42.804;23.342;2023-01-30T12:03:58;74298.22;;;-148.52;100.00
3254;BME280;1639;42.804;23.342;2023-01-30T12:06:32;74304.44;;;-148.52;100.00
3254;BME280;1639;42.804;23.342;2023-01-30T12:08:58;74300.28;;;-148.52;100.00
3254;BME280;1639;42.804;23.342;2023-01-30T12:22:04;74285.81;;;-148.52;100.00
3254;BME280;1639;42.804;23.342;2023-01-30T12:24:54;74275.47;;;-148.52;100.00
3254;BME280;1639;42.804;23.342;2023-01-30T12:27:42;74279.59;;;-148.52;100.00
3254;BME280;1639;42.804;23.342;2023-01-30T12:30:42;74277.53;;;-148.52;100.00
3254;BME280;1639;42.804;23.342;2023-01-30T12:33:12;74258.91;;;-148.52;100.00
3254;BME280;1639;42.804;23.342;2023-01-30T12:35:48;74260.97;;;-148.52;100.00
3254;BME280;1639;42.804;23.342;2023-01-30T12:55:01;74246.50;;;-148.52;100.00
3254;BME280;1639;42.804;23.342;2023-01-30T12:57:59;74252.69;;;-148.52;100.00
3254;BME280;1639;42.804;23.342;2023-01-30T13:01:39;74252.69;;;-148.52;100.00
3254;BME280;1639;42.804;23.342;2023-01-30T13:15:17;74258.91;;;-148.52;100.00
3254;BME280;1639;42.804;23.342;2023-01-30T13:23:19;74263.03;;;-148.52;100.00
3254;BME280;1639;42.804;23.342;2023-01-30T13:26:06;74256.84;;;-148.52;100.00
3254;BME280;1639;42.804;23.342;2023-01-30T13:28:40;74252.69;;;-148.52;100.00
3254;BME280;1639;42.804;23.342;2023-01-30T13:31:11;74234.09;;;-148.52;100.00
3254;BME280;1639;42.804;23.342;2023-01-30T13:33:41;74234.09;;;-148.52;100.00
3254;BME280;1639;42.804;23.342;2023-01-30T13:36:23;74238.22;;;-148.52;100.00
3254;BME280;1639;42.804;23.342;2023-01-30T13:39:29;74250.63;;;-148.52;100.00
3254;BME280;1639;42.804;23.342;2023-01-30T13:41:59;74244.44;;;-148.52;100.00
3254;BME280;1639;42.804;23.342;2023-01-30T13:44:30;74242.38;;;-148.52;100.00
3254;BME280;1639;42.804;23.342;2023-01-30T13:47:04;74242.38;;;-148.52;100.00
3254;BME280;1639;42.804;23.342;2023-01-30T13:49:54;74244.44;;;-148.52;100.00
3254;BME280;1639;42.804;23.342;2023-01-30T13:52:32;74263.03;;;-148.52;100.00
3254;BME280;1639;42.804;23.342;2023-01-30T14:00:51;74250.63;;;-148.52;100.00
3254;BME280;1639;42.804;23.342;2023-01-30T14:03:28;74260.97;;;-148.52;100.00
3254;BME280;1639;42.804;23.342;2023-01-30T14:11:32;74252.69;;;-148.52;100.00
3254;BME280;1639;42.804;23.342;2023-01-30T14:16:51;74263.03;;;-148.52;100.00
3254;BME280;1639;42.804;23.342;2023-01-30T14:19:30;74263.03;;;-148.52;100.00
3254;BME280;1639;42.804;23.342;2023-01-30T14:21:59;74269.25;;;-148.52;100.00
3254;BME280;1639;42.804;23.342;2023-01-30T14:24:26;74265.13;;;-148.52;100.00
3254;BME280;1639;42.804;23.342;2023-01-30T14:34:41;74250.63;;;-148.52;100.00
3254;BME280;1639;42.804;23.342;2023-01-30T14:39:53;74232.00;;;-148.52;100.00
3254;BME280;1639;42.804;23.342;2023-01-30T14:42:27;74225.81;;;-148.52;100.00
3254;BME280;1639;42.804;23.342;2023-01-30T14:47:27;74246.50;;;-148.52;100.00
3254;BME280;1639;42.804;23.342;2023-01-30T14:49:53;74260.97;;;-148.52;100.00
3254;BME280;1639;42.804;23.342;2023-01-30T14:52:39;74269.25;;;-148.52;100.00
3254;BME280;1639;42.804;23.342;2023-01-30T14:55:19;74271.31;;;-148.52;100.00
3254;BME280;1639;42.804;23.342;2023-01-30T14:57:52;74279.59;;;-148.52;100.00
3254;BME280;1639;42.804;23.342;2023-01-30T15:00:23;74287.88;;;-148.52;100.00
3254;BME280;1639;42.804;23.342;2023-01-30T15:03:05;74283.75;;;-148.52;100.00
3254;BME280;1639;42.804;23.342;2023-01-30T15:05:42;74287.88;;;-148.52;100.00
3254;BME280;1639;42.804;23.342;2023-01-30T15:08:15;74292.00;;;-148.52;100.00
3254;BME280;1639;42.804;23.342;2023-01-30T15:32:24;74343.72;;;-148.52;100.00
3254;BME280;1639;42.804;23.342;2023-01-30T15:37:36;74356.16;;;-148.52;100.00
3254;BME280;1639;42.804;23.342;2023-01-30T15:51:15;74360.28;;;-148.52;100.00
3254;BME280;1639;42.804;23.342;2023-01-30T15:53:45;74354.06;;;-148.52;100.00
3254;BME280;1639;42.804;23.342;2023-01-30T15:56:19;74358.22;;;-148.52;100.00